sensor_id;sensor_type;location;lat;lon;timestamp;P1;durP1;ratioP1;P2;durP2;ratioP2
21661;SDS011;10992;48.170;8.596;2023-05-10T00:02:10;0.95;;;0.20;;
21661;SDS011;10992;48.170;8.596;2023-05-10T00:04:37;0.20;;;0.20;;
21661;SDS011;10992;48.170;8.596;2023-05-10T00:07:04;0.47;;;0.30;;
21661;SDS011;10992;48.170;8.596;2023-05-10T00:09:31;1.45;;;0.20;;
21661;SDS011;10992;48.170;8.596;2023-05-10T00:11:57;0.65;;;0.40;;
21661;SDS011;10992;48.170;8.596;2023-05-10T00:14:25;0.68;;;0.30;;
21661;SDS011;10992;48.170;8.596;2023-05-10T00:16:52;0.80;;;0.30;;
21661;SDS011;10992;48.170;8.596;2023-05-10T00:19:19;1.05;;;0.40;;
21661;SDS011;10992;48.170;8.596;2023-05-10T00:21:46;0.40;;;0.30;;
21661;SDS011;10992;48.170;8.596;2023-05-10T00:24:13;0.63;;;0.30;;
21661;SDS011;10992;48.170;8.596;2023-05-10T00:26:40;0.40;;;0.40;;
21661;SDS011;10992;48.170;8.596;2023-05-10T00:29:08;0.38;;;0.30;;
21661;SDS011;10992;48.170;8.596;2023-05-10T00:31:35;0.40;;;0.30;;
21661;SDS011;10992;48.170;8.596;2023-05-10T00:34:02;0.20;;;0.20;;
21661;SDS011;10992;48.170;8.596;2023-05-10T00:36:29;0.82;;;0.50;;
21661;SDS011;10992;48.170;8.596;2023-05-10T00:38:57;0.63;;;0.30;;
21661;SDS011;10992;48.170;8.596;2023-05-10T00:41:24;0.70;;;0.40;;
21661;SDS011;10992;48.170;8.596;2023-05-10T00:43:53;1.23;;;0.32;;
21661;SDS011;10992;48.170;8.596;2023-05-10T00:46:20;0.38;;;0.30;;
21661;SDS011;10992;48.170;8.596;2023-05-10T00:48:47;0.60;;;0.30;;
21661;SDS011;10992;48.170;8.596;2023-05-10T00:51:15;0.45;;;0.38;;
21661;SDS011;10992;48.170;8.596;2023-05-10T00:53:43;0.20;;;0.20;;
21661;SDS011;10992;48.170;8.596;2023-05-10T00:56:14;0.85;;;0.40;;
21661;SDS011;10992;48.170;8.596;2023-05-10T00:58:42;0.50;;;0.30;;
21661;SDS011;10992;48.170;8.596;2023-05-10T01:01:09;0.30;;;0.30;;
21661;SDS011;10992;48.170;8.596;2023-05-10T01:03:37;0.32;;;0.30;;
21661;SDS011;10992;48.170;8.596;2023-05-10T01:06:06;0.38;;;0.38;;
21661;SDS011;10992;48.170;8.596;2023-05-10T01:08:33;0.40;;;0.30;;
21661;SDS011;10992;48.170;8.596;2023-05-10T01:11:03;0.52;;;0.35;;
21661;SDS011;10992;48.170;8.596;2023-05-10T01:13:32;1.90;;;0.40;;
21661;SDS011;10992;48.170;8.596;2023-05-10T01:16:02;0.68;;;0.38;;
21661;SDS011;10992;48.170;8.596;2023-05-10T01:18:30;1.67;;;0.73;;
21661;SDS011;10992;48.170;8.596;2023-05-10T01:21:19;1.38;;;0.30;;
21661;SDS011;10992;48.170;8.596;2023-05-10T01:32:53;1.50;;;0.30;;
21661;SDS011;10992;48.170;8.596;2023-05-10T01:37:59;0.80;;;0.60;;
21661;SDS011;10992;48.170;8.596;2023-05-10T01:40:42;0.45;;;0.45;;
21661;SDS011;10992;48.170;8.596;2023-05-10T01:43:36;1.20;;;0.40;;
21661;SDS011;10992;48.170;8.596;2023-05-10T01:46:10;1.88;;;0.50;;
21661;SDS011;10992;48.170;8.596;2023-05-10T01:48:53;0.50;;;0.40;;
21661;SDS011;10992;48.170;8.596;2023-05-10T01:51:24;0.73;;;0.47;;
21661;SDS011;10992;48.170;8.596;2023-05-10T01:53:54;0.95;;;0.43;;
21661;SDS011;10992;48.170;8.596;2023-05-10T01:56:27;0.98;;;0.60;;
21661;SDS011;10992;48.170;8.596;2023-05-10T01:58:58;0.90;;;0.40;;
21661;SDS011;10992;48.170;8.596;2023-05-10T02:01:29;0.40;;;0.40;;
21661;SDS011;10992;48.170;8.596;2023-05-10T02:03:57;1.25;;;0.70;;
21661;SDS011;10992;48.170;8.596;2023-05-10T02:06:25;0.73;;;0.60;;
21661;SDS011;10992;48.170;8.596;2023-05-10T02:08:53;0.80;;;0.50;;
21661;SDS011;10992;48.170;8.596;2023-05-10T02:11:21;0.65;;;0.50;;
21661;SDS011;10992;48.170;8.596;2023-05-10T02:13:51;0.95;;;0.50;;
21661;SDS011;10992;48.170;8.596;2023-05-10T02:16:26;0.50;;;0.50;;
21661;SDS011;10992;48.170;8.596;2023-05-10T02:18:58;1.30;;;0.52;;
21661;SDS011;10992;48.170;8.596;2023-05-10T02:21:29;0.68;;;0.50;;
21661;SDS011;10992;48.170;8.596;2023-05-10T02:23:57;0.43;;;0.40;;
21661;SDS011;10992;48.170;8.596;2023-05-10T02:26:27;2.67;;;0.60;;
21661;SDS011;10992;48.170;8.596;2023-05-10T02:28:55;2.38;;;0.70;;
21661;SDS011;10992;48.170;8.596;2023-05-10T02:31:24;2.17;;;0.50;;
21661;SDS011;10992;48.170;8.596;2023-05-10T02:33:52;3.08;;;0.60;;
21661;SDS011;10992;48.170;8.596;2023-05-10T02:36:20;1.48;;;0.60;;
21661;SDS011;10992;48.170;8.596;2023-05-10T02:38:48;2.85;;;0.50;;
21661;SDS011;10992;48.170;8.596;2023-05-10T02:41:17;2.75;;;0.55;;
21661;SDS011;10992;48.170;8.596;2023-05-10T02:43:47;0.40;;;0.40;;
21661;SDS011;10992;48.170;8.596;2023-05-10T02:46:23;1.73;;;0.57;;
21661;SDS011;10992;48.170;8.596;2023-05-10T02:48:50;0.75;;;0.60;;
21661;SDS011;10992;48.170;8.596;2023-05-10T02:51:16;0.70;;;0.50;;
21661;SDS011;10992;48.170;8.596;2023-05-10T02:53:45;1.02;;;0.75;;
21661;SDS011;10992;48.170;8.596;2023-05-10T02:56:19;1.05;;;0.70;;
21661;SDS011;10992;48.170;8.596;2023-05-10T02:58:57;1.15;;;0.80;;
21661;SDS011;10992;48.170;8.596;2023-05-10T03:01:24;1.20;;;0.73;;
21661;SDS011;10992;48.170;8.596;2023-05-10T03:03:51;2.45;;;0.90;;
21661;SDS011;10992;48.170;8.596;2023-05-10T03:06:18;1.15;;;0.75;;
21661;SDS011;10992;48.170;8.596;2023-05-10T03:08:45;1.73;;;0.80;;
21661;SDS011;10992;48.170;8.596;2023-05-10T03:22:41;1.90;;;0.88;;
21661;SDS011;10992;48.170;8.596;2023-05-10T03:25:12;4.85;;;1.05;;
21661;SDS011;10992;48.170;8.596;2023-05-10T03:27:41;1.13;;;0.85;;
21661;SDS011;10992;48.170;8.596;2023-05-10T03:30:10;1.23;;;0.80;;
21661;SDS011;10992;48.170;8.596;2023-05-10T03:32:40;1.15;;;0.90;;
21661;SDS011;10992;48.170;8.596;2023-05-10T03:35:11;1.10;;;1.00;;
21661;SDS011;10992;48.170;8.596;2023-05-10T03:37:40;2.55;;;1.10;;
21661;SDS011;10992;48.170;8.596;2023-05-10T03:40:07;1.00;;;0.90;;
21661;SDS011;10992;48.170;8.596;2023-05-10T03:42:39;1.45;;;1.27;;
21661;SDS011;10992;48.170;8.596;2023-05-10T03:45:06;1.67;;;1.40;;
21661;SDS011;10992;48.170;8.596;2023-05-10T03:47:34;1.38;;;1.17;;
21661;SDS011;10992;48.170;8.596;2023-05-10T03:50:01;1.23;;;1.08;;
21661;SDS011;10992;48.170;8.596;2023-05-10T03:52:28;3.17;;;1.40;;
21661;SDS011;10992;48.170;8.596;2023-05-10T03:54:55;4.47;;;1.98;;
21661;SDS011;10992;48.170;8.596;2023-05-10T03:57:23;1.70;;;1.60;;
21661;SDS011;10992;48.170;8.596;2023-05-10T03:59:50;1.92;;;1.30;;
21661;SDS011;10992;48.170;8.596;2023-05-10T04:02:17;2.53;;;1.83;;
21661;SDS011;10992;48.170;8.596;2023-05-10T04:04:44;2.25;;;1.17;;
21661;SDS011;10992;48.170;8.596;2023-05-10T04:07:11;3.10;;;1.63;;
21661;SDS011;10992;48.170;8.596;2023-05-10T04:09:38;4.28;;;2.25;;
21661;SDS011;10992;48.170;8.596;2023-05-10T04:12:05;2.30;;;1.80;;
21661;SDS011;10992;48.170;8.596;2023-05-10T04:14:35;3.13;;;1.80;;
21661;SDS011;10992;48.170;8.596;2023-05-10T04:17:03;1.70;;;1.50;;
21661;SDS011;10992;48.170;8.596;2023-05-10T04:19:30;2.58;;;1.75;;
21661;SDS011;10992;48.170;8.596;2023-05-10T04:21:57;1.48;;;1.38;;
21661;SDS011;10992;48.170;8.596;2023-05-10T04:24:25;2.30;;;1.30;;
21661;SDS011;10992;48.170;8.596;2023-05-10T04:26:52;3.03;;;1.45;;
21661;SDS011;10992;48.170;8.596;2023-05-10T04:29:23;2.50;;;1.38;;
21661;SDS011;10992;48.170;8.596;2023-05-10T04:31:50;1.33;;;1.05;;
21661;SDS011;10992;48.170;8.596;2023-05-10T04:34:17;2.25;;;1.00;;
21661;SDS011;10992;48.170;8.596;2023-05-10T04:36:44;1.50;;;1.10;;
21661;SDS011;10992;48.170;8.596;2023-05-10T04:39:11;3.22;;;1.15;;
21661;SDS011;10992;48.170;8.596;2023-05-10T04:41:38;2.35;;;1.40;;
21661;SDS011;10992;48.170;8.596;2023-05-10T04:44:04;3.70;;;1.45;;
21661;SDS011;10992;48.170;8.596;2023-05-10T04:46:32;1.38;;;0.98;;
21661;SDS011;10992;48.170;8.596;2023-05-10T04:48:59;3.75;;;0.90;;
21661;SDS011;10992;48.170;8.596;2023-05-10T04:51:26;1.50;;;1.27;;
21661;SDS011;10992;48.170;8.596;2023-05-10T04:53:53;1.63;;;1.08;;
21661;SDS011;10992;48.170;8.596;2023-05-10T04:56:31;2.15;;;1.00;;
21661;SDS011;10992;48.170;8.596;2023-05-10T04:58:58;2.08;;;1.40;;
21661;SDS011;10992;48.170;8.596;2023-05-10T05:01:25;3.20;;;1.10;;
21661;SDS011;10992;48.170;8.596;2023-05-10T05:03:52;1.58;;;1.25;;
21661;SDS011;10992;48.170;8.596;2023-05-10T05:06:19;2.38;;;1.25;;
21661;SDS011;10992;48.170;8.596;2023-05-10T05:08:47;2.20;;;1.13;;
21661;SDS011;10992;48.170;8.596;2023-05-10T05:11:16;1.15;;;1.05;;
21661;SDS011;10992;48.170;8.596;2023-05-10T05:13:43;1.23;;;1.05;;
21661;SDS011;10992;48.170;8.596;2023-05-10T05:16:10;1.40;;;1.08;;
21661;SDS011;10992;48.170;8.596;2023-05-10T05:18:38;1.90;;;1.48;;
21661;SDS011;10992;48.170;8.596;2023-05-10T05:21:17;1.42;;;1.25;;
21661;SDS011;10992;48.170;8.596;2023-05-10T05:23:45;3.10;;;1.30;;
21661;SDS011;10992;48.170;8.596;2023-05-10T05:26:12;1.40;;;1.30;;
21661;SDS011;10992;48.170;8.596;2023-05-10T05:28:41;1.33;;;1.13;;
21661;SDS011;10992;48.170;8.596;2023-05-10T05:31:08;2.10;;;1.08;;
21661;SDS011;10992;48.170;8.596;2023-05-10T05:33:35;1.27;;;1.17;;
21661;SDS011;10992;48.170;8.596;2023-05-10T05:36:03;2.80;;;1.63;;
21661;SDS011;10992;48.170;8.596;2023-05-10T05:38:31;1.70;;;1.15;;
21661;SDS011;10992;48.170;8.596;2023-05-10T05:40:58;1.23;;;1.02;;
21661;SDS011;10992;48.170;8.596;2023-05-10T05:43:26;2.47;;;1.08;;
21661;SDS011;10992;48.170;8.596;2023-05-10T05:45:53;1.45;;;1.00;;
21661;SDS011;10992;48.170;8.596;2023-05-10T05:48:20;2.17;;;1.00;;
21661;SDS011;10992;48.170;8.596;2023-05-10T05:50:47;1.60;;;1.10;;
21661;SDS011;10992;48.170;8.596;2023-05-10T05:53:14;2.25;;;1.75;;
21661;SDS011;10992;48.170;8.596;2023-05-10T05:55:55;3.17;;;1.75;;
21661;SDS011;10992;48.170;8.596;2023-05-10T05:58:23;1.98;;;1.50;;
21661;SDS011;10992;48.170;8.596;2023-05-10T06:00:51;1.73;;;1.50;;
21661;SDS011;10992;48.170;8.596;2023-05-10T06:03:18;1.80;;;1.30;;
21661;SDS011;10992;48.170;8.596;2023-05-10T06:05:46;1.77;;;1.17;;
21661;SDS011;10992;48.170;8.596;2023-05-10T06:08:13;2.00;;;1.40;;
21661;SDS011;10992;48.170;8.596;2023-05-10T06:10:40;1.85;;;1.40;;
21661;SDS011;10992;48.170;8.596;2023-05-10T06:13:07;2.55;;;1.60;;
21661;SDS011;10992;48.170;8.596;2023-05-10T06:15:34;3.42;;;1.20;;
21661;SDS011;10992;48.170;8.596;2023-05-10T06:18:01;2.58;;;1.08;;
21661;SDS011;10992;48.170;8.596;2023-05-10T06:20:28;2.00;;;0.60;;
21661;SDS011;10992;48.170;8.596;2023-05-10T06:22:57;2.65;;;0.70;;
21661;SDS011;10992;48.170;8.596;2023-05-10T06:25:25;0.98;;;0.70;;
21661;SDS011;10992;48.170;8.596;2023-05-10T06:27:52;0.90;;;0.60;;
21661;SDS011;10992;48.170;8.596;2023-05-10T06:30:23;4.13;;;0.60;;
21661;SDS011;10992;48.170;8.596;2023-05-10T06:32:55;0.88;;;0.70;;
21661;SDS011;10992;48.170;8.596;2023-05-10T06:35:22;2.38;;;0.70;;
21661;SDS011;10992;48.170;8.596;2023-05-10T06:37:49;0.82;;;0.80;;
21661;SDS011;10992;48.170;8.596;2023-05-10T06:40:17;1.45;;;0.80;;
21661;SDS011;10992;48.170;8.596;2023-05-10T06:42:44;2.67;;;1.05;;
21661;SDS011;10992;48.170;8.596;2023-05-10T06:45:12;3.80;;;1.00;;
21661;SDS011;10992;48.170;8.596;2023-05-10T06:47:41;1.80;;;1.10;;
21661;SDS011;10992;48.170;8.596;2023-05-10T06:50:08;2.78;;;0.90;;
21661;SDS011;10992;48.170;8.596;2023-05-10T06:52:36;3.38;;;1.20;;
21661;SDS011;10992;48.170;8.596;2023-05-10T06:55:03;1.83;;;1.13;;
21661;SDS011;10992;48.170;8.596;2023-05-10T06:57:31;3.22;;;1.70;;
21661;SDS011;10992;48.170;8.596;2023-05-10T06:59:58;1.52;;;1.00;;
21661;SDS011;10992;48.170;8.596;2023-05-10T07:02:26;2.42;;;1.02;;
21661;SDS011;10992;48.170;8.596;2023-05-10T07:04:53;1.00;;;0.75;;
21661;SDS011;10992;48.170;8.596;2023-05-10T07:07:20;5.53;;;1.30;;
21661;SDS011;10992;48.170;8.596;2023-05-10T07:09:47;2.00;;;1.00;;
21661;SDS011;10992;48.170;8.596;2023-05-10T07:12:16;2.20;;;0.85;;
21661;SDS011;10992;48.170;8.596;2023-05-10T07:14:43;1.65;;;0.80;;
21661;SDS011;10992;48.170;8.596;2023-05-10T07:17:10;1.92;;;0.70;;
21661;SDS011;10992;48.170;8.596;2023-05-10T07:19:37;2.42;;;0.68;;
21661;SDS011;10992;48.170;8.596;2023-05-10T07:22:04;1.55;;;0.95;;
21661;SDS011;10992;48.170;8.596;2023-05-10T07:24:31;2.25;;;0.73;;
21661;SDS011;10992;48.170;8.596;2023-05-10T07:26:59;0.60;;;0.60;;
21661;SDS011;10992;48.170;8.596;2023-05-10T07:29:26;2.42;;;0.82;;
21661;SDS011;10992;48.170;8.596;2023-05-10T07:31:54;1.52;;;0.90;;
21661;SDS011;10992;48.170;8.596;2023-05-10T07:34:24;1.08;;;0.70;;
21661;SDS011;10992;48.170;8.596;2023-05-10T07:36:51;1.52;;;0.60;;
21661;SDS011;10992;48.170;8.596;2023-05-10T07:39:18;0.82;;;0.63;;
21661;SDS011;10992;48.170;8.596;2023-05-10T07:41:53;1.02;;;0.75;;
21661;SDS011;10992;48.170;8.596;2023-05-10T07:44:21;0.70;;;0.60;;
21661;SDS011;10992;48.170;8.596;2023-05-10T07:46:48;1.13;;;0.60;;
21661;SDS011;10992;48.170;8.596;2023-05-10T07:49:15;0.77;;;0.43;;
21661;SDS011;10992;48.170;8.596;2023-05-10T07:51:42;2.63;;;0.43;;
21661;SDS011;10992;48.170;8.596;2023-05-10T07:54:09;0.40;;;0.40;;
21661;SDS011;10992;48.170;8.596;2023-05-10T07:56:37;1.17;;;0.65;;
21661;SDS011;10992;48.170;8.596;2023-05-10T07:59:03;0.98;;;0.60;;
21661;SDS011;10992;48.170;8.596;2023-05-10T08:01:33;1.23;;;0.68;;
21661;SDS011;10992;48.170;8.596;2023-05-10T08:04:01;1.15;;;0.60;;
21661;SDS011;10992;48.170;8.596;2023-05-10T08:06:29;1.60;;;0.60;;
21661;SDS011;10992;48.170;8.596;2023-05-10T08:08:56;0.88;;;0.60;;
21661;SDS011;10992;48.170;8.596;2023-05-10T08:11:24;1.02;;;0.68;;
21661;SDS011;10992;48.170;8.596;2023-05-10T08:13:51;1.50;;;0.50;;
21661;SDS011;10992;48.170;8.596;2023-05-10T08:16:18;1.30;;;0.70;;
21661;SDS011;10992;48.170;8.596;2023-05-10T08:18:46;1.60;;;0.85;;
21661;SDS011;10992;48.170;8.596;2023-05-10T08:21:13;0.70;;;0.40;;
21661;SDS011;10992;48.170;8.596;2023-05-10T08:23:41;0.50;;;0.50;;
21661;SDS011;10992;48.170;8.596;2023-05-10T08:26:10;2.67;;;0.50;;
21661;SDS011;10992;48.170;8.596;2023-05-10T08:28:37;2.67;;;0.70;;
21661;SDS011;10992;48.170;8.596;2023-05-10T08:31:05;0.50;;;0.40;;
21661;SDS011;10992;48.170;8.596;2023-05-10T08:33:41;0.52;;;0.20;;
21661;SDS011;10992;48.170;8.596;2023-05-10T08:36:10;1.38;;;0.40;;
21661;SDS011;10992;48.170;8.596;2023-05-10T08:38:37;0.50;;;0.50;;
21661;SDS011;10992;48.170;8.596;2023-05-10T08:41:04;6.07;;;0.50;;
21661;SDS011;10992;48.170;8.596;2023-05-10T08:43:32;0.55;;;0.30;;
21661;SDS011;10992;48.170;8.596;2023-05-10T08:46:01;0.80;;;0.60;;
21661;SDS011;10992;48.170;8.596;2023-05-10T08:48:29;1.38;;;0.60;;
21661;SDS011;10992;48.170;8.596;2023-05-10T08:50:57;0.32;;;0.30;;
21661;SDS011;10992;48.170;8.596;2023-05-10T08:53:26;1.60;;;0.38;;
21661;SDS011;10992;48.170;8.596;2023-05-10T08:55:57;1.65;;;0.52;;
21661;SDS011;10992;48.170;8.596;2023-05-10T08:58:24;1.35;;;0.65;;
21661;SDS011;10992;48.170;8.596;2023-05-10T09:00:52;1.38;;;0.65;;
21661;SDS011;10992;48.170;8.596;2023-05-10T09:03:23;2.88;;;0.73;;
21661;SDS011;10992;48.170;8.596;2023-05-10T09:05:50;1.38;;;0.55;;
21661;SDS011;10992;48.170;8.596;2023-05-10T09:08:17;1.55;;;0.63;;
21661;SDS011;10992;48.170;8.596;2023-05-10T09:10:44;0.40;;;0.30;;
21661;SDS011;10992;48.170;8.596;2023-05-10T09:13:14;0.80;;;0.40;;
21661;SDS011;10992;48.170;8.596;2023-05-10T09:15:43;0.68;;;0.38;;
21661;SDS011;10992;48.170;8.596;2023-05-10T09:18:11;1.85;;;0.40;;
21661;SDS011;10992;48.170;8.596;2023-05-10T09:20:38;2.72;;;0.52;;
21661;SDS011;10992;48.170;8.596;2023-05-10T09:23:05;1.00;;;0.50;;
21661;SDS011;10992;48.170;8.596;2023-05-10T09:25:32;0.65;;;0.40;;
21661;SDS011;10992;48.170;8.596;2023-05-10T09:28:00;0.82;;;0.40;;
21661;SDS011;10992;48.170;8.596;2023-05-10T09:30:27;0.95;;;0.52;;
21661;SDS011;10992;48.170;8.596;2023-05-10T09:32:57;1.08;;;0.50;;
21661;SDS011;10992;48.170;8.596;2023-05-10T09:35:26;0.50;;;0.47;;
21661;SDS011;10992;48.170;8.596;2023-05-10T09:37:56;0.68;;;0.50;;
21661;SDS011;10992;48.170;8.596;2023-05-10T09:40:25;0.90;;;0.38;;
21661;SDS011;10992;48.170;8.596;2023-05-10T09:45:38;3.28;;;0.90;;
21661;SDS011;10992;48.170;8.596;2023-05-10T09:48:07;2.38;;;0.55;;
21661;SDS011;10992;48.170;8.596;2023-05-10T09:50:34;1.17;;;0.30;;
21661;SDS011;10992;48.170;8.596;2023-05-10T09:53:01;2.17;;;0.60;;
21661;SDS011;10992;48.170;8.596;2023-05-10T09:55:40;1.55;;;0.52;;
21661;SDS011;10992;48.170;8.596;2023-05-10T09:58:10;2.45;;;0.50;;
21661;SDS011;10992;48.170;8.596;2023-05-10T10:00:44;0.90;;;0.30;;
21661;SDS011;10992;48.170;8.596;2023-05-10T10:03:15;0.80;;;0.50;;
21661;SDS011;10992;48.170;8.596;2023-05-10T10:05:47;1.73;;;0.52;;
21661;SDS011;10992;48.170;8.596;2023-05-10T10:08:15;1.38;;;0.68;;
21661;SDS011;10992;48.170;8.596;2023-05-10T10:10:44;3.22;;;0.50;;
21661;SDS011;10992;48.170;8.596;2023-05-10T10:13:12;1.70;;;0.77;;
21661;SDS011;10992;48.170;8.596;2023-05-10T10:15:40;2.25;;;0.57;;
21661;SDS011;10992;48.170;8.596;2023-05-10T10:18:08;3.17;;;0.50;;
21661;SDS011;10992;48.170;8.596;2023-05-10T10:20:40;1.60;;;0.65;;
21661;SDS011;10992;48.170;8.596;2023-05-10T10:23:08;2.33;;;0.60;;
21661;SDS011;10992;48.170;8.596;2023-05-10T10:25:35;0.85;;;0.40;;
21661;SDS011;10992;48.170;8.596;2023-05-10T10:30:53;2.38;;;0.90;;
21661;SDS011;10992;48.170;8.596;2023-05-10T10:36:14;0.75;;;0.52;;
21661;SDS011;10992;48.170;8.596;2023-05-10T10:52:21;4.20;;;0.57;;
21661;SDS011;10992;48.170;8.596;2023-05-10T10:57:48;3.38;;;0.70;;
21661;SDS011;10992;48.170;8.596;2023-05-10T11:03:06;0.60;;;0.45;;
21661;SDS011;10992;48.170;8.596;2023-05-10T11:08:08;1.08;;;0.60;;
21661;SDS011;10992;48.170;8.596;2023-05-10T11:10:48;1.48;;;0.45;;
21661;SDS011;10992;48.170;8.596;2023-05-10T11:16:10;2.28;;;0.70;;
21661;SDS011;10992;48.170;8.596;2023-05-10T11:18:38;2.55;;;0.70;;
21661;SDS011;10992;48.170;8.596;2023-05-10T11:21:05;1.38;;;0.82;;
21661;SDS011;10992;48.170;8.596;2023-05-10T11:26:15;1.17;;;0.80;;
21661;SDS011;10992;48.170;8.596;2023-05-10T11:28:45;4.63;;;0.60;;
21661;SDS011;10992;48.170;8.596;2023-05-10T11:31:14;3.58;;;1.27;;
21661;SDS011;10992;48.170;8.596;2023-05-10T11:33:45;1.17;;;0.73;;
21661;SDS011;10992;48.170;8.596;2023-05-10T11:36:20;1.25;;;0.73;;
21661;SDS011;10992;48.170;8.596;2023-05-10T11:38:52;3.17;;;1.02;;
21661;SDS011;10992;48.170;8.596;2023-05-10T11:41:20;3.28;;;0.80;;
21661;SDS011;10992;48.170;8.596;2023-05-10T11:43:49;1.42;;;0.70;;
21661;SDS011;10992;48.170;8.596;2023-05-10T11:46:18;1.30;;;0.80;;
21661;SDS011;10992;48.170;8.596;2023-05-10T11:48:48;3.05;;;0.77;;
21661;SDS011;10992;48.170;8.596;2023-05-10T11:51:21;4.80;;;0.70;;
21661;SDS011;10992;48.170;8.596;2023-05-10T11:53:49;1.73;;;0.70;;
21661;SDS011;10992;48.170;8.596;2023-05-10T11:56:17;4.28;;;0.73;;
21661;SDS011;10992;48.170;8.596;2023-05-10T11:58:44;2.50;;;0.75;;
21661;SDS011;10992;48.170;8.596;2023-05-10T12:01:13;1.23;;;0.73;;
21661;SDS011;10992;48.170;8.596;2023-05-10T12:03:40;5.10;;;1.48;;
21661;SDS011;10992;48.170;8.596;2023-05-10T12:06:07;2.03;;;0.73;;
21661;SDS011;10992;48.170;8.596;2023-05-10T12:08:34;3.22;;;0.70;;
21661;SDS011;10992;48.170;8.596;2023-05-10T12:11:08;2.20;;;0.50;;
21661;SDS011;10992;48.170;8.596;2023-05-10T12:13:40;2.72;;;0.75;;
21661;SDS011;10992;48.170;8.596;2023-05-10T12:16:18;2.15;;;0.50;;
21661;SDS011;10992;48.170;8.596;2023-05-10T12:18:53;3.33;;;0.73;;
21661;SDS011;10992;48.170;8.596;2023-05-10T12:21:23;3.53;;;1.00;;
21661;SDS011;10992;48.170;8.596;2023-05-10T12:23:52;1.75;;;0.60;;
21661;SDS011;10992;48.170;8.596;2023-05-10T12:26:23;2.00;;;0.65;;
21661;SDS011;10992;48.170;8.596;2023-05-10T12:29:11;1.83;;;0.98;;
21661;SDS011;10992;48.170;8.596;2023-05-10T12:31:55;2.10;;;0.70;;
21661;SDS011;10992;48.170;8.596;2023-05-10T12:34:29;1.05;;;0.65;;
21661;SDS011;10992;48.170;8.596;2023-05-10T12:36:57;1.70;;;0.40;;
21661;SDS011;10992;48.170;8.596;2023-05-10T12:39:25;1.55;;;0.77;;
21661;SDS011;10992;48.170;8.596;2023-05-10T12:41:52;1.85;;;0.63;;
21661;SDS011;10992;48.170;8.596;2023-05-10T12:44:18;3.67;;;0.65;;
21661;SDS011;10992;48.170;8.596;2023-05-10T12:46:45;1.10;;;0.70;;
21661;SDS011;10992;48.170;8.596;2023-05-10T12:49:12;3.97;;;0.82;;
21661;SDS011;10992;48.170;8.596;2023-05-10T12:51:39;1.17;;;0.60;;
21661;SDS011;10992;48.170;8.596;2023-05-10T12:54:06;1.35;;;0.40;;
21661;SDS011;10992;48.170;8.596;2023-05-10T12:56:33;2.97;;;0.60;;
21661;SDS011;10992;48.170;8.596;2023-05-10T12:59:00;1.02;;;0.50;;
21661;SDS011;10992;48.170;8.596;2023-05-10T13:01:27;2.80;;;0.70;;
21661;SDS011;10992;48.170;8.596;2023-05-10T13:03:55;2.50;;;0.50;;
21661;SDS011;10992;48.170;8.596;2023-05-10T13:06:22;2.20;;;0.50;;
21661;SDS011;10992;48.170;8.596;2023-05-10T13:08:49;2.65;;;0.68;;
21661;SDS011;10992;48.170;8.596;2023-05-10T13:11:16;1.67;;;0.50;;
21661;SDS011;10992;48.170;8.596;2023-05-10T13:13:43;2.28;;;0.73;;
21661;SDS011;10992;48.170;8.596;2023-05-10T13:16:10;2.17;;;0.68;;
21661;SDS011;10992;48.170;8.596;2023-05-10T13:18:37;1.70;;;0.60;;
21661;SDS011;10992;48.170;8.596;2023-05-10T13:21:04;2.22;;;0.57;;
21661;SDS011;10992;48.170;8.596;2023-05-10T13:23:31;2.40;;;0.80;;
21661;SDS011;10992;48.170;8.596;2023-05-10T13:25:58;3.58;;;0.82;;
21661;SDS011;10992;48.170;8.596;2023-05-10T13:28:25;1.77;;;0.65;;
21661;SDS011;10992;48.170;8.596;2023-05-10T13:30:52;2.92;;;0.90;;
21661;SDS011;10992;48.170;8.596;2023-05-10T13:33:19;4.68;;;0.70;;
21661;SDS011;10992;48.170;8.596;2023-05-10T13:35:46;2.28;;;0.60;;
21661;SDS011;10992;48.170;8.596;2023-05-10T13:38:13;1.75;;;0.73;;
21661;SDS011;10992;48.170;8.596;2023-05-10T13:40:40;2.83;;;1.17;;
21661;SDS011;10992;48.170;8.596;2023-05-10T13:43:07;2.90;;;0.73;;
21661;SDS011;10992;48.170;8.596;2023-05-10T13:45:34;1.60;;;0.70;;
21661;SDS011;10992;48.170;8.596;2023-05-10T13:48:01;2.92;;;0.70;;
21661;SDS011;10992;48.170;8.596;2023-05-10T13:50:28;2.08;;;0.65;;
21661;SDS011;10992;48.170;8.596;2023-05-10T13:52:56;2.78;;;0.93;;
21661;SDS011;10992;48.170;8.596;2023-05-10T13:55:23;2.08;;;0.68;;
21661;SDS011;10992;48.170;8.596;2023-05-10T13:57:50;1.55;;;0.82;;
21661;SDS011;10992;48.170;8.596;2023-05-10T14:00:17;2.08;;;0.50;;
21661;SDS011;10992;48.170;8.596;2023-05-10T14:02:44;2.67;;;0.80;;
21661;SDS011;10992;48.170;8.596;2023-05-10T14:05:11;2.20;;;0.70;;
21661;SDS011;10992;48.170;8.596;2023-05-10T14:07:39;2.30;;;0.75;;
21661;SDS011;10992;48.170;8.596;2023-05-10T14:10:06;4.03;;;0.63;;
21661;SDS011;10992;48.170;8.596;2023-05-10T14:12:33;1.63;;;0.80;;
21661;SDS011;10992;48.170;8.596;2023-05-10T14:15:00;3.15;;;0.90;;
21661;SDS011;10992;48.170;8.596;2023-05-10T14:17:27;4.38;;;1.00;;
21661;SDS011;10992;48.170;8.596;2023-05-10T14:19:54;2.20;;;1.05;;
21661;SDS011;10992;48.170;8.596;2023-05-10T14:22:21;3.65;;;0.80;;
21661;SDS011;10992;48.170;8.596;2023-05-10T14:24:48;1.73;;;0.77;;
21661;SDS011;10992;48.170;8.596;2023-05-10T14:27:17;4.18;;;1.95;;
21661;SDS011;10992;48.170;8.596;2023-05-10T14:29:45;2.17;;;1.33;;
21661;SDS011;10992;48.170;8.596;2023-05-10T14:32:12;5.75;;;1.20;;
21661;SDS011;10992;48.170;8.596;2023-05-10T14:34:38;2.05;;;1.08;;
21661;SDS011;10992;48.170;8.596;2023-05-10T14:37:05;2.58;;;1.00;;
21661;SDS011;10992;48.170;8.596;2023-05-10T14:39:32;3.22;;;1.20;;
21661;SDS011;10992;48.170;8.596;2023-05-10T14:41:59;2.80;;;1.33;;
21661;SDS011;10992;48.170;8.596;2023-05-10T14:44:26;2.13;;;1.33;;
21661;SDS011;10992;48.170;8.596;2023-05-10T14:46:54;2.55;;;1.30;;
21661;SDS011;10992;48.170;8.596;2023-05-10T14:49:21;1.13;;;0.70;;
21661;SDS011;10992;48.170;8.596;2023-05-10T14:51:52;3.47;;;0.90;;
21661;SDS011;10992;48.170;8.596;2023-05-10T14:54:19;0.63;;;0.50;;
21661;SDS011;10992;48.170;8.596;2023-05-10T14:56:46;1.77;;;0.60;;
21661;SDS011;10992;48.170;8.596;2023-05-10T14:59:16;2.47;;;0.50;;
21661;SDS011;10992;48.170;8.596;2023-05-10T15:01:43;1.08;;;0.40;;
21661;SDS011;10992;48.170;8.596;2023-05-10T15:04:10;1.08;;;0.63;;
21661;SDS011;10992;48.170;8.596;2023-05-10T15:06:39;1.00;;;0.57;;
21661;SDS011;10992;48.170;8.596;2023-05-10T15:09:07;0.73;;;0.40;;
21661;SDS011;10992;48.170;8.596;2023-05-10T15:11:34;1.08;;;0.50;;
21661;SDS011;10992;48.170;8.596;2023-05-10T15:14:01;0.70;;;0.40;;
21661;SDS011;10992;48.170;8.596;2023-05-10T15:16:28;2.60;;;0.68;;
21661;SDS011;10992;48.170;8.596;2023-05-10T15:18:55;0.77;;;0.40;;
21661;SDS011;10992;48.170;8.596;2023-05-10T15:21:22;0.57;;;0.38;;
21661;SDS011;10992;48.170;8.596;2023-05-10T15:23:48;0.90;;;0.50;;
21661;SDS011;10992;48.170;8.596;2023-05-10T15:26:15;1.73;;;0.50;;
21661;SDS011;10992;48.170;8.596;2023-05-10T15:28:42;3.40;;;0.50;;
21661;SDS011;10992;48.170;8.596;2023-05-10T15:31:09;0.47;;;0.30;;
21661;SDS011;10992;48.170;8.596;2023-05-10T15:33:36;2.92;;;1.00;;
21661;SDS011;10992;48.170;8.596;2023-05-10T15:36:04;2.05;;;0.50;;
21661;SDS011;10992;48.170;8.596;2023-05-10T15:38:31;1.15;;;0.50;;
21661;SDS011;10992;48.170;8.596;2023-05-10T15:40:58;2.15;;;0.65;;
21661;SDS011;10992;48.170;8.596;2023-05-10T15:43:25;1.55;;;0.70;;
21661;SDS011;10992;48.170;8.596;2023-05-10T15:45:51;3.60;;;0.95;;
21661;SDS011;10992;48.170;8.596;2023-05-10T15:48:18;2.55;;;1.15;;
21661;SDS011;10992;48.170;8.596;2023-05-10T15:50:45;1.33;;;0.50;;
21661;SDS011;10992;48.170;8.596;2023-05-10T15:53:12;1.52;;;0.80;;
21661;SDS011;10992;48.170;8.596;2023-05-10T15:55:39;4.10;;;1.42;;